sensor_id;sensor_type;location;lat;lon;timestamp;pressure;altitude;pressure_sealevel;temperature;humidity
70027;BME280;57506;50.092;15.804;2023-02-03T00:00:57;99812.25;;;-1.03;100.00
70027;BME280;57506;50.092;15.804;2023-02-03T00:03:23;99828.34;;;-1.07;100.00
70027;BME280;57506;50.092;15.804;2023-02-03T00:05:49;99817.56;;;-1.16;100.00
70027;BME280;57506;50.092;15.804;2023-02-03T00:08:16;99799.44;;;-1.22;100.00
70027;BME280;57506;50.092;15.804;2023-02-03T00:10:43;99810.38;;;-1.14;100.00
70027;BME280;57506;50.092;15.804;2023-02-03T00:13:08;99808.31;;;-1.11;100.00
70027;BME280;57506;50.092;15.804;2023-02-03T00:15:34;99804.00;;;-1.12;100.00
70027;BME280;57506;50.092;15.804;2023-02-03T00:18:00;99788.44;;;-1.29;100.00
70027;BME280;57506;50.092;15.804;2023-02-03T00:20:25;99819.75;;;-1.10;100.00
70027;BME280;57506;50.092;15.804;2023-02-03T00:22:51;99786.22;;;-1.35;100.00
70027;BME280;57506;50.092;15.804;2023-02-03T00:25:17;99809.72;;;-1.18;100.00
70027;BME280;57506;50.092;15.804;2023-02-03T00:27:43;99807.06;;;-1.18;100.00
70027;BME280;57506;50.092;15.804;2023-02-03T00:30:10;99795.94;;;-1.23;100.00
70027;BME280;57506;50.092;15.804;2023-02-03T00:32:36;99787.28;;;-1.25;100.00
70027;BME280;57506;50.092;15.804;2023-02-03T00:35:02;99778.84;;;-1.30;100.00
70027;BME280;57506;50.092;15.804;2023-02-03T00:37:28;99786.13;;;-1.21;100.00
70027;BME280;57506;50.092;15.804;2023-02-03T00:39:53;99775.13;;;-1.15;100.00
70027;BME280;57506;50.092;15.804;2023-02-03T00:42:19;99777.78;;;-1.15;100.00
70027;BME280;57506;50.092;15.804;2023-02-03T00:44:44;99781.56;;;-1.19;100.00
70027;BME280;57506;50.092;15.804;2023-02-03T00:47:10;99766.44;;;-1.29;100.00
70027;BME280;57506;50.092;15.804;2023-02-03T00:49:35;99761.56;;;-1.23;100.00
70027;BME280;57506;50.092;15.804;2023-02-03T00:52:01;99777.34;;;-1.21;100.00
70027;BME280;57506;50.092;15.804;2023-02-03T00:54:26;99767.72;;;-1.22;100.00
70027;BME280;57506;50.092;15.804;2023-02-03T00:56:52;99779.69;;;-1.17;100.00
70027;BME280;57506;50.092;15.804;2023-02-03T00:59:17;99754.50;;;-1.35;100.00
70027;BME280;57506;50.092;15.804;2023-02-03T01:01:43;99759.78;;;-1.35;100.00
70027;BME280;57506;50.092;15.804;2023-02-03T01:04:08;99771.00;;;-1.31;100.00
70027;BME280;57506;50.092;15.804;2023-02-03T01:06:33;99741.88;;;-1.44;100.00
70027;BME280;57506;50.092;15.804;2023-02-03T01:09:01;99767.50;;;-1.32;100.00
70027;BME280;57506;50.092;15.804;2023-02-03T01:11:27;99768.47;;;-1.33;100.00
70027;BME280;57506;50.092;15.804;2023-02-03T01:13:55;99747.31;;;-1.33;100.00
70027;BME280;57506;50.092;15.804;2023-02-03T01:16:22;99753.66;;;-1.23;100.00
70027;BME280;57506;50.092;15.804;2023-02-03T01:18:48;99751.75;;;-1.21;100.00
70027;BME280;57506;50.092;15.804;2023-02-03T01:21:19;99736.53;;;-1.30;100.00
70027;BME280;57506;50.092;15.804;2023-02-03T01:23:45;99728.47;;;-1.28;100.00
70027;BME280;57506;50.092;15.804;2023-02-03T01:26:13;99731.84;;;-1.26;100.00
70027;BME280;57506;50.092;15.804;2023-02-03T01:28:39;99724.88;;;-1.27;100.00
70027;BME280;57506;50.092;15.804;2023-02-03T01:31:12;99717.69;;;-1.25;100.00
70027;BME280;57506;50.092;15.804;2023-02-03T01:33:39;99701.41;;;-1.32;100.00
70027;BME280;57506;50.092;15.804;2023-02-03T01:36:09;99711.22;;;-1.21;100.00
70027;BME280;57506;50.092;15.804;2023-02-03T01:38:36;99712.28;;;-1.24;100.00
70027;BME280;57506;50.092;15.804;2023-02-03T01:41:03;99698.97;;;-1.35;100.00
70027;BME280;57506;50.092;15.804;2023-02-03T01:43:33;99708.78;;;-1.12;100.00
70027;BME280;57506;50.092;15.804;2023-02-03T01:46:03;99704.66;;;-1.03;100.00
70027;BME280;57506;50.092;15.804;2023-02-03T01:48:32;99697.47;;;-1.01;100.00
70027;BME280;57506;50.092;15.804;2023-02-03T01:51:01;99703.47;;;-0.86;100.00
70027;BME280;57506;50.092;15.804;2023-02-03T01:53:28;99676.59;;;-0.93;100.00
70027;BME280;57506;50.092;15.804;2023-02-03T01:55:53;99685.69;;;-0.84;100.00
70027;BME280;57506;50.092;15.804;2023-02-03T01:58:22;99668.75;;;-0.82;100.00
70027;BME280;57506;50.092;15.804;2023-02-03T02:00:51;99656.97;;;-0.78;100.00
70027;BME280;57506;50.092;15.804;2023-02-03T02:03:23;99636.38;;;-0.85;100.00
70027;BME280;57506;50.092;15.804;2023-02-03T02:05:59;99648.81;;;-0.75;100.00
70027;BME280;57506;50.092;15.804;2023-02-03T02:08:27;99649.34;;;-0.69;100.00
70027;BME280;57506;50.092;15.804;2023-02-03T02:10:54;99640.06;;;-0.64;100.00
70027;BME280;57506;50.092;15.804;2023-02-03T02:13:19;99638.91;;;-0.60;100.00
70027;BME280;57506;50.092;15.804;2023-02-03T02:16:05;99629.19;;;-0.48;100.00
70027;BME280;57506;50.092;15.804;2023-02-03T02:19:07;99622.53;;;-0.30;100.00
70027;BME280;57506;50.092;15.804;2023-02-03T02:37:58;99572.94;;;0.18;100.00
70027;BME280;57506;50.092;15.804;2023-02-03T02:43:20;99585.97;;;0.32;100.00
70027;BME280;57506;50.092;15.804;2023-02-03T02:45:55;99600.19;;;0.31;100.00
70027;BME280;57506;50.092;15.804;2023-02-03T02:48:37;99612.72;;;0.29;100.00
70027;BME280;57506;50.092;15.804;2023-02-03T02:51:06;99598.72;;;0.16;100.00
70027;BME280;57506;50.092;15.804;2023-02-03T02:53:38;99608.84;;;0.22;100.00
70027;BME280;57506;50.092;15.804;2023-02-03T02:56:07;99604.72;;;0.18;100.00
70027;BME280;57506;50.092;15.804;2023-02-03T02:58:35;99574.38;;;0.00;100.00
70027;BME280;57506;50.092;15.804;2023-02-03T03:01:01;99582.56;;;0.08;100.00
70027;BME280;57506;50.092;15.804;2023-02-03T03:03:28;99588.31;;;0.02;100.00
70027;BME280;57506;50.092;15.804;2023-02-03T03:05:56;99567.63;;;-0.04;100.00
70027;BME280;57506;50.092;15.804;2023-02-03T03:11:09;99580.28;;;0.15;100.00
70027;BME280;57506;50.092;15.804;2023-02-03T03:13:43;99573.19;;;0.15;100.00
70027;BME280;57506;50.092;15.804;2023-02-03T03:16:13;99569.81;;;0.13;100.00
70027;BME280;57506;50.092;15.804;2023-02-03T03:18:43;99566.69;;;0.30;100.00
70027;BME280;57506;50.092;15.804;2023-02-03T03:21:20;99582.47;;;0.32;100.00
70027;BME280;57506;50.092;15.804;2023-02-03T03:23:49;99579.22;;;0.40;100.00
70027;BME280;57506;50.092;15.804;2023-02-03T03:26:30;99586.22;;;0.41;100.00
70027;BME280;57506;50.092;15.804;2023-02-03T03:31:39;99581.75;;;0.41;100.00
70027;BME280;57506;50.092;15.804;2023-02-03T03:34:07;99581.84;;;0.51;100.00
70027;BME280;57506;50.092;15.804;2023-02-03T03:39:32;99584.16;;;0.55;100.00
70027;BME280;57506;50.092;15.804;2023-02-03T03:42:09;99587.66;;;0.56;100.00
70027;BME280;57506;50.092;15.804;2023-02-03T03:45:18;99592.47;;;0.51;100.00
70027;BME280;57506;50.092;15.804;2023-02-03T03:50:36;99578.75;;;0.46;100.00
70027;BME280;57506;50.092;15.804;2023-02-03T03:53:04;99554.63;;;0.15;100.00
70027;BME280;57506;50.092;15.804;2023-02-03T03:55:33;99562.59;;;0.15;100.00
70027;BME280;57506;50.092;15.804;2023-02-03T03:58:06;99561.38;;;0.19;100.00
70027;BME280;57506;50.092;15.804;2023-02-03T04:00:35;99554.16;;;0.21;100.00
70027;BME280;57506;50.092;15.804;2023-02-03T04:03:15;99535.25;;;0.15;100.00
70027;BME280;57506;50.092;15.804;2023-02-03T04:05:42;99551.50;;;0.21;100.00
70027;BME280;57506;50.092;15.804;2023-02-03T04:08:08;99547.88;;;0.22;100.00
70027;BME280;57506;50.092;15.804;2023-02-03T04:10:36;99542.81;;;0.19;100.00
70027;BME280;57506;50.092;15.804;2023-02-03T04:13:03;99512.81;;;0.08;100.00
70027;BME280;57506;50.092;15.804;2023-02-03T04:15:30;99507.41;;;0.09;100.00
70027;BME280;57506;50.092;15.804;2023-02-03T04:17:56;99505.47;;;0.22;100.00
70027;BME280;57506;50.092;15.804;2023-02-03T04:20:23;99519.91;;;0.52;100.00
70027;BME280;57506;50.092;15.804;2023-02-03T04:22:49;99514.38;;;0.55;100.00
70027;BME280;57506;50.092;15.804;2023-02-03T04:25:14;99509.88;;;0.66;100.00
70027;BME280;57506;50.092;15.804;2023-02-03T04:27:40;99527.59;;;0.66;100.00
70027;BME280;57506;50.092;15.804;2023-02-03T04:30:06;99524.47;;;0.72;100.00
70027;BME280;57506;50.092;15.804;2023-02-03T04:32:32;99518.94;;;0.53;100.00
70027;BME280;57506;50.092;15.804;2023-02-03T04:35:00;99527.88;;;0.63;100.00
70027;BME280;57506;50.092;15.804;2023-02-03T04:37:26;99507.88;;;0.48;100.00
70027;BME280;57506;50.092;15.804;2023-02-03T04:39:52;99492.81;;;0.48;100.00
70027;BME280;57506;50.092;15.804;2023-02-03T04:42:18;99478.56;;;0.49;100.00
70027;BME280;57506;50.092;15.804;2023-02-03T04:44:44;99485.00;;;0.47;100.00
70027;BME280;57506;50.092;15.804;2023-02-03T04:47:09;99480.28;;;0.39;100.00
70027;BME280;57506;50.092;15.804;2023-02-03T04:49:35;99468.84;;;0.39;100.00
70027;BME280;57506;50.092;15.804;2023-02-03T04:52:00;99479.94;;;0.44;100.00
70027;BME280;57506;50.092;15.804;2023-02-03T04:54:26;99471.84;;;0.34;100.00
70027;BME280;57506;50.092;15.804;2023-02-03T04:56:51;99464.34;;;0.50;100.00
70027;BME280;57506;50.092;15.804;2023-02-03T04:59:17;99446.91;;;0.37;100.00
70027;BME280;57506;50.092;15.804;2023-02-03T05:01:42;99440.41;;;0.41;100.00
70027;BME280;57506;50.092;15.804;2023-02-03T05:04:08;99422.94;;;0.38;100.00
70027;BME280;57506;50.092;15.804;2023-02-03T05:06:33;99429.06;;;0.39;100.00
70027;BME280;57506;50.092;15.804;2023-02-03T05:08:59;99417.63;;;0.38;100.00
70027;BME280;57506;50.092;15.804;2023-02-03T05:11:25;99412.56;;;0.35;100.00
70027;BME280;57506;50.092;15.804;2023-02-03T05:13:52;99384.66;;;0.20;100.00
70027;BME280;57506;50.092;15.804;2023-02-03T05:16:17;99373.94;;;0.21;100.00
70027;BME280;57506;50.092;15.804;2023-02-03T05:18:43;99362.41;;;0.11;100.00
70027;BME280;57506;50.092;15.804;2023-02-03T05:21:08;99382.47;;;0.25;100.00
70027;BME280;57506;50.092;15.804;2023-02-03T05:23:34;99368.03;;;0.18;100.00
70027;BME280;57506;50.092;15.804;2023-02-03T05:25:59;99370.56;;;0.19;100.00
70027;BME280;57506;50.092;15.804;2023-02-03T05:28:25;99358.28;;;0.18;100.00
70027;BME280;57506;50.092;15.804;2023-02-03T05:30:50;99344.56;;;0.13;100.00
70027;BME280;57506;50.092;15.804;2023-02-03T05:33:16;99358.78;;;0.12;100.00
70027;BME280;57506;50.092;15.804;2023-02-03T05:35:42;99354.94;;;0.16;100.00
70027;BME280;57506;50.092;15.804;2023-02-03T05:38:07;99316.41;;;0.01;100.00
70027;BME280;57506;50.092;15.804;2023-02-03T05:40:33;99338.69;;;0.10;100.00
70027;BME280;57506;50.092;15.804;2023-02-03T05:43:17;99330.59;;;0.11;100.00
70027;BME280;57506;50.092;15.804;2023-02-03T05:45:43;99332.53;;;0.09;100.00
70027;BME280;57506;50.092;15.804;2023-02-03T05:48:09;99312.78;;;0.02;100.00
70027;BME280;57506;50.092;15.804;2023-02-03T05:50:35;99323.50;;;0.12;100.00
70027;BME280;57506;50.092;15.804;2023-02-03T05:53:03;99332.50;;;0.20;100.00
70027;BME280;57506;50.092;15.804;2023-02-03T05:55:29;99329.59;;;0.23;100.00
70027;BME280;57506;50.092;15.804;2023-02-03T05:57:56;99331.53;;;0.21;100.00
70027;BME280;57506;50.092;15.804;2023-02-03T06:00:23;99328.03;;;0.21;100.00
70027;BME280;57506;50.092;15.804;2023-02-03T06:05:17;99324.66;;;0.19;100.00
70027;BME280;57506;50.092;15.804;2023-02-03T06:07:42;99316.59;;;0.20;100.00
70027;BME280;57506;50.092;15.804;2023-02-03T06:10:08;99303.75;;;0.16;100.00
70027;BME280;57506;50.092;15.804;2023-02-03T06:12:34;99289.88;;;0.12;100.00
70027;BME280;57506;50.092;15.804;2023-02-03T06:14:59;99267.84;;;0.12;100.00
70027;BME280;57506;50.092;15.804;2023-02-03T06:17:24;99268.09;;;0.09;100.00
70027;BME280;57506;50.092;15.804;2023-02-03T06:19:50;99269.53;;;0.13;100.00
70027;BME280;57506;50.092;15.804;2023-02-03T06:22:15;99198.63;;;-0.27;100.00
70027;BME280;57506;50.092;15.804;2023-02-03T06:24:41;99273.75;;;0.15;100.00
70027;BME280;57506;50.092;15.804;2023-02-03T06:27:08;99241.34;;;0.12;100.00
70027;BME280;57506;50.092;15.804;2023-02-03T06:29:34;99248.94;;;0.16;100.00
70027;BME280;57506;50.092;15.804;2023-02-03T06:31:59;99259.16;;;0.42;100.00
70027;BME280;57506;50.092;15.804;2023-02-03T06:34:25;99258.94;;;0.33;100.00
70027;BME280;57506;50.092;15.804;2023-02-03T06:36:50;99255.72;;;0.30;100.00
70027;BME280;57506;50.092;15.804;2023-02-03T06:39:16;99253.47;;;0.25;100.00
70027;BME280;57506;50.092;15.804;2023-02-03T06:41:41;99247.44;;;0.23;100.00
70027;BME280;57506;50.092;15.804;2023-02-03T06:44:07;99248.34;;;0.33;100.00
70027;BME280;57506;50.092;15.804;2023-02-03T06:46:32;99221.78;;;0.24;100.00
70027;BME280;57506;50.092;15.804;2023-02-03T06:48:58;99235.38;;;0.30;100.00
70027;BME280;57506;50.092;15.804;2023-02-03T06:51:24;99246.16;;;0.39;100.00
70027;BME280;57506;50.092;15.804;2023-02-03T06:53:49;99236.41;;;0.39;100.00
70027;BME280;57506;50.092;15.804;2023-02-03T06:56:15;99229.78;;;0.33;100.00
70027;BME280;57506;50.092;15.804;2023-02-03T06:58:40;99218.03;;;0.26;100.00
70027;BME280;57506;50.092;15.804;2023-02-03T07:01:06;99245.19;;;0.40;100.00
70027;BME280;57506;50.092;15.804;2023-02-03T07:03:31;99222.22;;;0.50;100.00
70027;BME280;57506;50.092;15.804;2023-02-03T07:05:57;99230.97;;;0.41;100.00
70027;BME280;57506;50.092;15.804;2023-02-03T07:08:22;99222.63;;;0.45;100.00
70027;BME280;57506;50.092;15.804;2023-02-03T07:10:52;99206.78;;;0.34;100.00
70027;BME280;57506;50.092;15.804;2023-02-03T07:13:18;99225.28;;;0.45;100.00
70027;BME280;57506;50.092;15.804;2023-02-03T07:15:44;99222.91;;;0.42;100.00
70027;BME280;57506;50.092;15.804;2023-02-03T07:18:09;99228.31;;;0.41;100.00
70027;BME280;57506;50.092;15.804;2023-02-03T07:20:35;99218.19;;;0.46;100.00
70027;BME280;57506;50.092;15.804;2023-02-03T07:23:00;99203.13;;;0.46;100.00
70027;BME280;57506;50.092;15.804;2023-02-03T07:25:26;99210.94;;;0.48;100.00
70027;BME280;57506;50.092;15.804;2023-02-03T07:27:52;99205.09;;;0.54;100.00
70027;BME280;57506;50.092;15.804;2023-02-03T07:30:18;99185.28;;;0.48;100.00
70027;BME280;57506;50.092;15.804;2023-02-03T07:32:51;99192.22;;;0.49;100.00
70027;BME280;57506;50.092;15.804;2023-02-03T07:35:17;99189.31;;;0.52;100.00
70027;BME280;57506;50.092;15.804;2023-02-03T07:37:43;99180.09;;;0.47;100.00
70027;BME280;57506;50.092;15.804;2023-02-03T07:40:10;99181.81;;;0.57;100.00
70027;BME280;57506;50.092;15.804;2023-02-03T07:42:41;99177.81;;;0.63;100.00
70027;BME280;57506;50.092;15.804;2023-02-03T07:45:07;99171.09;;;0.59;100.00
70027;BME280;57506;50.092;15.804;2023-02-03T07:47:32;99171.81;;;0.61;100.00
70027;BME280;57506;50.092;15.804;2023-02-03T07:49:58;99165.66;;;0.60;100.00
70027;BME280;57506;50.092;15.804;2023-02-03T07:52:23;99140.38;;;0.56;100.00
70027;BME280;57506;50.092;15.804;2023-02-03T07:54:49;99130.63;;;0.66;100.00
70027;BME280;57506;50.092;15.804;2023-02-03T07:57:14;99126.75;;;0.70;100.00
70027;BME280;57506;50.092;15.804;2023-02-03T07:59:40;99112.97;;;0.77;100.00
70027;BME280;57506;50.092;15.804;2023-02-03T08:02:07;99120.69;;;0.89;100.00
70027;BME280;57506;50.092;15.804;2023-02-03T08:04:33;99096.41;;;0.94;100.00
70027;BME280;57506;50.092;15.804;2023-02-03T08:06:58;99096.28;;;1.05;100.00
70027;BME280;57506;50.092;15.804;2023-02-03T08:09:24;99093.09;;;1.11;100.00
70027;BME280;57506;50.092;15.804;2023-02-03T08:11:49;99097.03;;;1.26;100.00
70027;BME280;57506;50.092;15.804;2023-02-03T08:14:14;99085.44;;;1.37;100.00
70027;BME280;57506;50.092;15.804;2023-02-03T08:16:40;99088.81;;;1.58;100.00
70027;BME280;57506;50.092;15.804;2023-02-03T08:19:05;99082.78;;;1.85;100.00
70027;BME280;57506;50.092;15.804;2023-02-03T08:21:31;99083.63;;;1.86;100.00
70027;BME280;57506;50.092;15.804;2023-02-03T08:23:56;99081.47;;;2.18;100.00
70027;BME280;57506;50.092;15.804;2023-02-03T08:26:22;99063.66;;;2.28;100.00
70027;BME280;57506;50.092;15.804;2023-02-03T08:28:48;99063.91;;;2.44;100.00
70027;BME280;57506;50.092;15.804;2023-02-03T08:31:14;99068.34;;;2.54;100.00
70027;BME280;57506;50.092;15.804;2023-02-03T08:33:40;99076.84;;;2.67;100.00
70027;BME280;57506;50.092;15.804;2023-02-03T08:36:05;99071.63;;;2.75;100.00
70027;BME280;57506;50.092;15.804;2023-02-03T08:38:31;99069.06;;;2.83;100.00
70027;BME280;57506;50.092;15.804;2023-02-03T08:40:57;99089.28;;;3.03;100.00
70027;BME280;57506;50.092;15.804;2023-02-03T08:43:22;99091.78;;;3.05;100.00
70027;BME280;57506;50.092;15.804;2023-02-03T08:45:48;99085.13;;;3.19;100.00
70027;BME280;57506;50.092;15.804;2023-02-03T08:48:13;99087.03;;;3.26;100.00
70027;BME280;57506;50.092;15.804;2023-02-03T08:50:42;99097.66;;;3.26;100.00
70027;BME280;57506;50.092;15.804;2023-02-03T08:53:09;99086.28;;;3.34;100.00
70027;BME280;57506;50.092;15.804;2023-02-03T08:55:38;99082.84;;;3.41;100.00
70027;BME280;57506;50.092;15.804;2023-02-03T08:58:04;99085.50;;;3.41;100.00
70027;BME280;57506;50.092;15.804;2023-02-03T09:00:30;99074.25;;;3.47;100.00
70027;BME280;57506;50.092;15.804;2023-02-03T09:02:55;99055.00;;;3.54;100.00
70027;BME280;57506;50.092;15.804;2023-02-03T09:05:21;99065.66;;;3.71;100.00
70027;BME280;57506;50.092;15.804;2023-02-03T09:07:46;99040.47;;;3.66;100.00
70027;BME280;57506;50.092;15.804;2023-02-03T09:10:12;99046.06;;;3.80;100.00
70027;BME280;57506;50.092;15.804;2023-02-03T09:12:37;99026.00;;;3.68;100.00
70027;BME280;57506;50.092;15.804;2023-02-03T09:15:03;99044.16;;;3.91;100.00
70027;BME280;57506;50.092;15.804;2023-02-03T09:17:28;99052.25;;;4.07;100.00
70027;BME280;57506;50.092;15.804;2023-02-03T09:19:54;99027.66;;;4.13;100.00
70027;BME280;57506;50.092;15.804;2023-02-03T09:22:19;99051.22;;;4.26;100.00
70027;BME280;57506;50.092;15.804;2023-02-03T09:24:45;99049.41;;;4.26;100.00
70027;BME280;57506;50.092;15.804;2023-02-03T09:27:10;99026.38;;;4.25;100.00
70027;BME280;57506;50.092;15.804;2023-02-03T09:29:36;99044.31;;;4.41;100.00
70027;BME280;57506;50.092;15.804;2023-02-03T09:32:02;99060.56;;;4.55;100.00
70027;BME280;57506;50.092;15.804;2023-02-03T09:34:31;99056.41;;;4.53;100.00
70027;BME280;57506;50.092;15.804;2023-02-03T09:36:57;99052.94;;;4.61;100.00
70027;BME280;57506;50.092;15.804;2023-02-03T09:39:22;99057.97;;;4.72;100.00
70027;BME280;57506;50.092;15.804;2023-02-03T09:47:31;99052.00;;;4.78;100.00
70027;BME280;57506;50.092;15.804;2023-02-03T09:50:05;99039.84;;;4.83;100.00
70027;BME280;57506;50.092;15.804;2023-02-03T09:52:34;99044.53;;;4.89;100.00
70027;BME280;57506;50.092;15.804;2023-02-03T09:55:31;99021.03;;;4.93;100.00
70027;BME280;57506;50.092;15.804;2023-02-03T09:58:12;99007.00;;;4.91;100.00
70027;BME280;57506;50.092;15.804;2023-02-03T10:03:32;99027.34;;;4.92;100.00
70027;BME280;57506;50.092;15.804;2023-02-03T10:06:15;99025.06;;;4.97;100.00
70027;BME280;57506;50.092;15.804;2023-02-03T10:09:21;99007.34;;;4.96;100.00
70027;BME280;57506;50.092;15.804;2023-02-03T10:14:46;98993.34;;;5.02;100.00
70027;BME280;57506;50.092;15.804;2023-02-03T10:17:39;99007.03;;;5.07;100.00
70027;BME280;57506;50.092;15.804;2023-02-03T10:22:41;98988.84;;;5.03;100.00
70027;BME280;57506;50.092;15.804;2023-02-03T10:25:19;98966.78;;;4.92;100.00
70027;BME280;57506;50.092;15.804;2023-02-03T10:27:51;98971.66;;;4.97;100.00
70027;BME280;57506;50.092;15.804;2023-02-03T10:30:23;98958.28;;;4.97;100.00
70027;BME280;57506;50.092;15.804;2023-02-03T10:32:54;98950.94;;;4.99;100.00
70027;BME280;57506;50.092;15.804;2023-02-03T10:35:30;98947.78;;;5.04;100.00
70027;BME280;57506;50.092;15.804;2023-02-03T10:37:58;98919.56;;;4.93;100.00
70027;BME280;57506;50.092;15.804;2023-02-03T10:40:25;98918.91;;;4.99;100.00
70027;BME280;57506;50.092;15.804;2023-02-03T10:42:51;98899.03;;;4.93;100.00
70027;BME280;57506;50.092;15.804;2023-02-03T10:45:37;98904.72;;;4.99;100.00
70027;BME280;57506;50.092;15.804;2023-02-03T10:48:04;98884.34;;;4.98;100.00
70027;BME280;57506;50.092;15.804;2023-02-03T10:50:31;98873.69;;;4.98;100.00
70027;BME280;57506;50.092;15.804;2023-02-03T10:53:25;98882.03;;;5.03;100.00
70027;BME280;57506;50.092;15.804;2023-02-03T10:56:08;98855.66;;;5.00;100.00
70027;BME280;57506;50.092;15.804;2023-02-03T10:58:37;98855.16;;;4.96;100.00
70027;BME280;57506;50.092;15.804;2023-02-03T11:01:13;98863.84;;;4.98;100.00
70027;BME280;57506;50.092;15.804;2023-02-03T11:03:52;98845.81;;;4.84;100.00
70027;BME280;57506;50.092;15.804;2023-02-03T11:06:19;98841.44;;;4.91;100.00
70027;BME280;57506;50.092;15.804;2023-02-03T11:08:47;98857.63;;;4.89;100.00
70027;BME280;57506;50.092;15.804;2023-02-03T11:11:21;98839.28;;;4.95;100.00
70027;BME280;57506;50.092;15.804;2023-02-03T11:16:26;98809.56;;;4.89;100.00
70027;BME280;57506;50.092;15.804;2023-02-03T11:21:47;98794.75;;;4.87;100.00
70027;BME280;57506;50.092;15.804;2023-02-03T11:24:29;98789.38;;;4.95;100.00
70027;BME280;57506;50.092;15.804;2023-02-03T11:27:12;98782.38;;;4.94;100.00
70027;BME280;57506;50.092;15.804;2023-02-03T11:29:42;98782.72;;;4.91;100.00
70027;BME280;57506;50.092;15.804;2023-02-03T11:32:28;98779.03;;;4.92;100.00
70027;BME280;57506;50.092;15.804;2023-02-03T11:35:00;98755.50;;;4.87;100.00
70027;BME280;57506;50.092;15.804;2023-02-03T11:37:34;98752.84;;;4.96;100.00
70027;BME280;57506;50.092;15.804;2023-02-03T11:42:37;98742.66;;;4.99;100.00
70027;BME280;57506;50.092;15.804;2023-02-03T11:59:26;98699.59;;;5.02;100.00
70027;BME280;57506;50.092;15.804;2023-02-03T12:18:37;98651.78;;;5.23;100.00
70027;BME280;57506;50.092;15.804;2023-02-03T12:29:33;98650.75;;;5.33;100.00
70027;BME280;57506;50.092;15.804;2023-02-03T12:34:35;98617.72;;;5.25;100.00
70027;BME280;57506;50.092;15.804;2023-02-03T12:42:17;98599.59;;;5.44;100.00
70027;BME280;57506;50.092;15.804;2023-02-03T12:47:23;98589.66;;;5.52;100.00
70027;BME280;57506;50.092;15.804;2023-02-03T12:49:56;98586.81;;;5.54;100.00
70027;BME280;57506;50.092;15.804;2023-02-03T12:52:54;98575.94;;;5.55;100.00
70027;BME280;57506;50.092;15.804;2023-02-03T12:58:03;98535.50;;;5.58;100.00
70027;BME280;57506;50.092;15.804;2023-02-03T13:03:31;98539.44;;;5.71;100.00
70027;BME280;57506;50.092;15.804;2023-02-03T13:11:33;98549.25;;;5.78;100.00
70027;BME280;57506;50.092;15.804;2023-02-03T13:14:16;98529.88;;;5.76;100.00
70027;BME280;57506;50.092;15.804;2023-02-03T13:16:46;98560.09;;;5.77;100.00
70027;BME280;57506;50.092;15.804;2023-02-03T13:19:26;98555.94;;;5.74;100.00
70027;BME280;57506;50.092;15.804;2023-02-03T13:21:53;98562.59;;;5.78;100.00
70027;BME280;57506;50.092;15.804;2023-02-03T13:24:22;98586.94;;;5.91;100.00
70027;BME280;57506;50.092;15.804;2023-02-03T13:30:06;98586.78;;;5.85;100.00
70027;BME280;57506;50.092;15.804;2023-02-03T13:38:59;98596.13;;;5.89;100.00
70027;BME280;57506;50.092;15.804;2023-02-03T13:41:47;98569.28;;;5.82;100.00
70027;BME280;57506;50.092;15.804;2023-02-03T13:44:23;98547.44;;;5.71;100.00
70027;BME280;57506;50.092;15.804;2023-02-03T13:46:51;98554.94;;;5.75;100.00
70027;BME280;57506;50.092;15.804;2023-02-03T13:49:35;98535.50;;;5.81;100.00
70027;BME280;57506;50.092;15.804;2023-02-03T13:52:01;98484.34;;;5.47;100.00
70027;BME280;57506;50.092;15.804;2023-02-03T13:54:32;98533.41;;;5.69;100.00
70027;BME280;57506;50.092;15.804;2023-02-03T13:57:01;98525.53;;;5.75;100.00
70027;BME280;57506;50.092;15.804;2023-02-03T13:59:39;98525.22;;;5.70;100.00
70027;BME280;57506;50.092;15.804;2023-02-03T14:07:36;98491.91;;;5.81;100.00
70027;BME280;57506;50.092;15.804;2023-02-03T14:12:38;98479.53;;;5.80;100.00
70027;BME280;57506;50.092;15.804;2023-02-03T14:22:50;98452.34;;;5.76;100.00
70027;BME280;57506;50.092;15.804;2023-02-03T14:25:18;98468.84;;;5.80;100.00
70027;BME280;57506;50.092;15.804;2023-02-03T14:27:44;98457.09;;;5.89;100.00
70027;BME280;57506;50.092;15.804;2023-02-03T14:30:13;98457.19;;;5.95;100.00
70027;BME280;57506;50.092;15.804;2023-02-03T14:35:18;98489.94;;;5.97;100.00
70027;BME280;57506;50.092;15.804;2023-02-03T14:37:52;98500.69;;;5.89;100.00
70027;BME280;57506;50.092;15.804;2023-02-03T14:40:52;98509.84;;;5.95;100.00
70027;BME280;57506;50.092;15.804;2023-02-03T14:43:37;98511.03;;;5.92;100.00
70027;BME280;57506;50.092;15.804;2023-02-03T14:46:18;98511.22;;;5.91;100.00
70027;BME280;57506;50.092;15.804;2023-02-03T14:54:36;98592.50;;;5.82;100.00
70027;BME280;57506;50.092;15.804;2023-02-03T15:02:26;98688.88;;;3.64;100.00
70027;BME280;57506;50.092;15.804;2023-02-03T15:07:37;98675.91;;;3.69;100.00
70027;BME280;57506;50.092;15.804;2023-02-03T15:10:12;98667.25;;;3.75;100.00
70027;BME280;57506;50.092;15.804;2023-02-03T15:12:37;98686.25;;;3.72;100.00
70027;BME280;57506;50.092;15.804;2023-02-03T15:15:19;98692.63;;;3.88;100.00
70027;BME280;57506;50.092;15.804;2023-02-03T15:17:46;98672.44;;;3.85;100.00
70027;BME280;57506;50.092;15.804;2023-02-03T15:22:55;98657.28;;;3.94;100.00
70027;BME280;57506;50.092;15.804;2023-02-03T15:25:22;98661.31;;;4.06;100.00
70027;BME280;57506;50.092;15.804;2023-02-03T15:27:50;98682.13;;;4.10;100.00
70027;BME280;57506;50.092;15.804;2023-02-03T15:30:24;98658.31;;;4.09;100.00
70027;BME280;57506;50.092;15.804;2023-02-03T15:35:33;98634.00;;;4.20;100.00
70027;BME280;57506;50.092;15.804;2023-02-03T15:38:05;98630.66;;;4.18;100.00
70027;BME280;57506;50.092;15.804;2023-02-03T15:40:59;98631.31;;;4.28;100.00